createdAt,value
2022-12-29T00:00:17.854Z,1.58
2022-12-29T00:02:45.019Z,1.27
2022-12-29T00:05:12.126Z,1.50
2022-12-29T00:07:39.107Z,1.20
2022-12-29T00:10:08.639Z,1.20
2022-12-29T00:12:54.555Z,1.50
2022-12-29T00:15:39.734Z,1.20
2022-12-29T00:18:07.824Z,1.13
2022-12-29T00:20:54.854Z,1.70
2022-12-29T00:23:40.766Z,1.25
2022-12-29T00:26:33.573Z,1.10
2022-12-29T00:29:19.083Z,1.20
2022-12-29T00:32:04.722Z,1.30
2022-12-29T00:34:50.112Z,1.13
2022-12-29T00:37:17.909Z,1.00
2022-12-29T00:40:03.673Z,1.10
2022-12-29T00:42:50.719Z,0.85
2022-12-29T00:45:18.178Z,1.03
2022-12-29T00:47:45.165Z,1.00
2022-12-29T00:50:12.224Z,1.60
2022-12-29T00:52:40.234Z,0.82
2022-12-29T00:55:07.462Z,1.15
2022-12-29T00:57:34.473Z,0.98
2022-12-29T01:00:01.486Z,1.00
2022-12-29T01:02:30.243Z,1.15
2022-12-29T01:04:57.490Z,1.10
2022-12-29T01:07:24.378Z,1.10
2022-12-29T01:10:09.862Z,1.20
2022-12-29T01:12:43.115Z,1.10
2022-12-29T01:15:15.284Z,1.00
2022-12-29T01:17:42.851Z,1.05
2022-12-29T01:20:11.828Z,0.80
2022-12-29T01:22:38.926Z,1.10
2022-12-29T01:25:07.407Z,1.08
2022-12-29T01:27:35.293Z,1.15
2022-12-29T01:30:02.264Z,1.30
2022-12-29T01:32:29.277Z,1.10
2022-12-29T01:34:57.329Z,1.05
2022-12-29T01:37:24.311Z,1.10
2022-12-29T01:39:51.275Z,1.08
2022-12-29T01:42:23.390Z,1.00
2022-12-29T01:44:58.094Z,1.20
2022-12-29T01:48:04.840Z,1.63
2022-12-29T01:50:42.900Z,1.10
2022-12-29T01:53:17.273Z,1.10
2022-12-29T01:55:52.891Z,1.20
2022-12-29T01:58:23.554Z,1.10
2022-12-29T02:00:50.639Z,1.30
2022-12-29T02:03:20.708Z,1.27
2022-12-29T02:06:03.662Z,0.95
2022-12-29T02:08:31.146Z,0.98
2022-12-29T02:11:01.322Z,1.20
2022-12-29T02:13:29.064Z,1.13
2022-12-29T02:16:30.777Z,1.00
2022-12-29T02:19:13.164Z,1.10
2022-12-29T02:21:55.759Z,1.05
2022-12-29T02:24:41.477Z,1.55
2022-12-29T02:27:25.665Z,1.00
2022-12-29T02:30:20.603Z,1.00
2022-12-29T02:33:08.972Z,1.00
2022-12-29T02:35:58.425Z,1.10
2022-12-29T02:38:49.047Z,1.05
2022-12-29T02:41:24.917Z,1.08
2022-12-29T02:46:46.732Z,1.35
2022-12-29T02:49:21.538Z,0.93
2022-12-29T02:51:59.408Z,1.10
2022-12-29T02:54:42.035Z,1.50
2022-12-29T02:57:21.165Z,1.10
2022-12-29T02:59:53.461Z,1.40
2022-12-29T03:02:42.161Z,1.20
2022-12-29T03:05:34.983Z,1.42
2022-12-29T03:08:25.981Z,1.10
2022-12-29T03:11:05.688Z,1.25
2022-12-29T03:13:56.675Z,1.10
2022-12-29T03:16:44.818Z,1.15
2022-12-29T03:19:27.124Z,1.40
2022-12-29T03:22:31.948Z,1.20
2022-12-29T03:25:30.800Z,1.35
2022-12-29T03:28:13.102Z,1.33
2022-12-29T03:30:46.812Z,1.00
2022-12-29T03:33:19.762Z,1.30
2022-12-29T03:35:52.120Z,1.17
2022-12-29T03:38:34.246Z,1.10
2022-12-29T03:41:05.892Z,1.08
2022-12-29T03:43:35.297Z,1.50
2022-12-29T03:46:02.357Z,1.17
2022-12-29T03:48:29.370Z,1.17
2022-12-29T03:50:57.097Z,1.13
2022-12-29T03:53:24.143Z,1.05
2022-12-29T03:55:51.878Z,1.30
2022-12-29T03:58:18.813Z,1.13
2022-12-29T04:01:08.964Z,1.10
2022-12-29T04:03:38.431Z,1.10
2022-12-29T04:06:06.126Z,1.45
2022-12-29T04:08:49.014Z,1.20
2022-12-29T04:11:16.854Z,1.00
2022-12-29T04:13:45.909Z,1.33
2022-12-29T04:16:17.322Z,1.10
2022-12-29T04:18:44.551Z,1.10
2022-12-29T04:21:11.639Z,1.13
2022-12-29T04:23:41.495Z,1.60
2022-12-29T04:26:10.622Z,1.00
2022-12-29T04:29:06.731Z,1.17
2022-12-29T04:31:33.778Z,1.10
2022-12-29T04:34:01.965Z,0.98
2022-12-29T04:36:30.391Z,1.10
2022-12-29T04:38:58.348Z,1.00
2022-12-29T04:41:25.850Z,1.20
2022-12-29T04:43:53.757Z,1.10
2022-12-29T04:46:23.887Z,1.27
2022-12-29T04:49:12.891Z,1.30
2022-12-29T04:52:03.264Z,1.20
2022-12-29T04:54:31.419Z,1.00
2022-12-29T04:57:07.909Z,1.40
2022-12-29T04:59:38.198Z,1.15
2022-12-29T05:02:05.942Z,1.10
2022-12-29T05:04:35.169Z,1.30
2022-12-29T05:07:02.911Z,1.30
2022-12-29T05:09:30.944Z,1.27
2022-12-29T05:11:58.086Z,0.93
2022-12-29T05:14:25.217Z,1.20
2022-12-29T05:16:54.027Z,1.10
2022-12-29T05:19:21.260Z,0.90
2022-12-29T05:21:48.361Z,1.00
2022-12-29T05:24:16.652Z,1.00
2022-12-29T05:26:43.793Z,0.75
2022-12-29T05:29:24.899Z,0.90
2022-12-29T05:31:53.342Z,1.20
2022-12-29T05:34:21.774Z,1.10
2022-12-29T05:36:48.986Z,1.20
2022-12-29T05:39:16.402Z,1.00
2022-12-29T05:41:47.115Z,1.10
2022-12-29T05:47:10.547Z,1.08
2022-12-29T05:50:00.436Z,0.98
2022-12-29T05:52:47.736Z,1.00
2022-12-29T05:55:15.216Z,1.15
2022-12-29T05:57:44.004Z,1.00
2022-12-29T06:00:15.276Z,0.98
2022-12-29T06:02:44.094Z,1.10
2022-12-29T06:05:11.320Z,1.00
2022-12-29T06:07:39.924Z,0.90
2022-12-29T06:10:07.852Z,1.10
2022-12-29T06:12:43.512Z,1.13
2022-12-29T06:15:11.383Z,0.98
2022-12-29T06:17:41.801Z,1.20
2022-12-29T06:20:10.912Z,1.13
2022-12-29T06:22:38.465Z,1.10
2022-12-29T06:25:06.532Z,1.23
2022-12-29T06:27:35.208Z,0.98
2022-12-29T06:30:02.448Z,1.58
2022-12-29T06:32:29.553Z,1.15
2022-12-29T06:35:01.692Z,1.05
2022-12-29T06:37:28.869Z,1.00
2022-12-29T06:39:56.171Z,1.00
2022-12-29T06:42:27.622Z,1.27
2022-12-29T06:45:12.481Z,1.08
2022-12-29T06:47:39.404Z,1.00
2022-12-29T06:50:07.202Z,1.00
2022-12-29T06:52:34.208Z,0.80
2022-12-29T06:55:01.228Z,1.10
2022-12-29T06:57:28.300Z,1.58
2022-12-29T06:59:56.823Z,1.30
2022-12-29T07:02:26.362Z,1.20
2022-12-29T07:04:53.794Z,1.65
2022-12-29T07:07:21.350Z,1.10
2022-12-29T07:09:48.572Z,1.40
2022-12-29T07:12:15.542Z,2.67
2022-12-29T07:14:43.428Z,1.30
2022-12-29T07:17:11.274Z,1.45
2022-12-29T07:19:38.543Z,1.20
2022-12-29T07:22:05.428Z,1.10
2022-12-29T07:24:32.429Z,1.08
2022-12-29T07:26:59.463Z,1.35
2022-12-29T07:29:26.409Z,1.40
2022-12-29T07:31:53.511Z,1.08
2022-12-29T07:34:20.624Z,0.95
2022-12-29T07:36:47.877Z,0.88
2022-12-29T07:39:14.927Z,1.00
2022-12-29T07:41:42.132Z,0.77
2022-12-29T07:44:16.438Z,1.13
2022-12-29T07:47:01.109Z,0.90
2022-12-29T07:49:29.577Z,1.10
2022-12-29T07:51:56.679Z,0.98
2022-12-29T07:54:24.378Z,1.00
2022-12-29T07:56:52.070Z,1.75
2022-12-29T07:59:19.422Z,1.10
2022-12-29T08:01:46.617Z,1.10
2022-12-29T08:04:13.677Z,1.13
2022-12-29T08:06:40.765Z,0.82
2022-12-29T08:09:16.402Z,1.00
2022-12-29T08:11:45.641Z,0.90
2022-12-29T08:14:14.420Z,0.95
2022-12-29T08:16:41.309Z,1.00
2022-12-29T08:19:08.339Z,1.10
2022-12-29T08:21:35.301Z,1.40
2022-12-29T08:24:02.416Z,1.50
2022-12-29T08:26:29.392Z,1.55
2022-12-29T08:28:57.391Z,1.73
2022-12-29T08:31:25.113Z,1.50
2022-12-29T08:33:52.208Z,1.70
2022-12-29T08:36:19.564Z,1.40
2022-12-29T08:38:47.254Z,1.30
2022-12-29T08:41:14.368Z,1.17
2022-12-29T08:43:41.483Z,1.40
2022-12-29T08:46:08.682Z,1.30
2022-12-29T08:48:35.752Z,1.30
2022-12-29T08:51:02.951Z,1.30
2022-12-29T08:53:30.106Z,1.30
2022-12-29T08:56:04.698Z,1.20
2022-12-29T08:58:39.300Z,1.17
2022-12-29T09:01:07.842Z,1.35
2022-12-29T09:04:12.805Z,1.45
2022-12-29T09:06:22.801Z,1.10
2022-12-29T09:08:49.980Z,1.35
2022-12-29T09:11:20.907Z,1.00
2022-12-29T09:13:48.873Z,1.23
2022-12-29T09:16:18.010Z,1.33
2022-12-29T09:18:46.194Z,1.10
2022-12-29T09:21:13.344Z,1.30
2022-12-29T09:23:41.572Z,1.10
2022-12-29T09:26:09.646Z,1.20
2022-12-29T09:28:36.785Z,0.85
2022-12-29T09:31:04.218Z,1.98
2022-12-29T09:33:33.604Z,1.20
2022-12-29T09:36:00.836Z,1.23
2022-12-29T09:38:28.991Z,1.23
2022-12-29T09:41:02.176Z,1.20
2022-12-29T09:43:48.075Z,1.98
2022-12-29T09:46:34.574Z,1.25
2022-12-29T09:49:26.651Z,1.80
2022-12-29T09:51:56.739Z,2.70
2022-12-29T09:54:29.545Z,1.92
2022-12-29T09:56:57.100Z,1.67
2022-12-29T09:59:37.487Z,2.20
2022-12-29T10:02:22.385Z,2.13
2022-12-29T10:04:49.951Z,2.00
2022-12-29T10:07:36.527Z,2.30
2022-12-29T10:10:28.220Z,2.00
2022-12-29T10:13:17.050Z,2.50
2022-12-29T10:15:57.799Z,3.83
2022-12-29T10:18:49.443Z,2.55
2022-12-29T10:21:33.017Z,1.27
2022-12-29T10:24:04.859Z,1.48
2022-12-29T10:26:38.995Z,2.15
2022-12-29T10:29:08.052Z,1.58
2022-12-29T10:32:06.938Z,1.60
2022-12-29T10:34:48.299Z,1.35
2022-12-29T10:37:34.563Z,1.40
2022-12-29T10:40:12.628Z,1.00
2022-12-29T10:42:53.341Z,16.90
2022-12-29T10:45:22.671Z,25.38
2022-12-29T10:48:10.187Z,14.02
2022-12-29T10:50:43.965Z,13.77
2022-12-29T10:53:24.941Z,1.75
2022-12-29T10:55:53.328Z,1.90
2022-12-29T10:58:21.217Z,2.40
2022-12-29T11:00:54.842Z,1.80
2022-12-29T11:03:31.207Z,3.05
2022-12-29T11:06:25.257Z,1.60
2022-12-29T11:09:03.561Z,1.08
2022-12-29T11:11:37.428Z,1.10
2022-12-29T11:14:16.300Z,1.27
2022-12-29T11:16:45.204Z,1.20
2022-12-29T11:19:28.108Z,1.00
2022-12-29T11:21:56.432Z,1.08
2022-12-29T11:24:28.925Z,1.30
2022-12-29T11:27:09.500Z,1.00
2022-12-29T11:29:44.461Z,1.30
2022-12-29T11:32:22.699Z,1.00
2022-12-29T11:34:53.598Z,1.15
2022-12-29T11:37:28.220Z,1.17
2022-12-29T11:40:06.550Z,1.40
2022-12-29T11:42:49.612Z,1.30
2022-12-29T11:45:19.982Z,1.60
2022-12-29T11:47:50.732Z,1.23
2022-12-29T11:50:30.929Z,1.40
2022-12-29T11:53:19.575Z,1.70
2022-12-29T11:56:02.714Z,1.10
2022-12-29T11:58:37.530Z,1.40
2022-12-29T12:01:14.815Z,1.03
2022-12-29T12:03:53.129Z,1.20
2022-12-29T12:06:25.317Z,1.35
2022-12-29T12:09:06.232Z,1.00
2022-12-29T12:11:39.069Z,1.20
2022-12-29T12:14:33.090Z,1.02
2022-12-29T12:17:28.461Z,0.95
2022-12-29T12:20:03.226Z,1.27
2022-12-29T12:22:35.405Z,1.02
2022-12-29T12:25:19.950Z,1.20
2022-12-29T12:28:06.896Z,1.30
2022-12-29T12:30:46.720Z,1.80
2022-12-29T12:33:27.298Z,1.20
2022-12-29T12:36:41.239Z,1.00
2022-12-29T12:39:31.623Z,1.00
2022-12-29T12:42:16.820Z,1.10
2022-12-29T12:44:47.190Z,1.20
2022-12-29T12:47:42.710Z,1.33
2022-12-29T12:50:14.522Z,0.80
2022-12-29T12:52:44.589Z,1.00
2022-12-29T12:55:17.738Z,1.10
2022-12-29T12:58:06.711Z,1.05
2022-12-29T13:00:43.665Z,1.30
2022-12-29T13:03:15.931Z,1.15
2022-12-29T13:05:51.869Z,1.20
2022-12-29T13:11:24.052Z,1.50
2022-12-29T13:14:24.376Z,1.52
2022-12-29T13:16:51.343Z,1.20
2022-12-29T13:19:34.457Z,1.13
2022-12-29T13:22:28.728Z,1.30
2022-12-29T13:25:20.118Z,1.02
2022-12-29T13:28:22.526Z,1.20
2022-12-29T13:31:06.308Z,1.50
2022-12-29T13:33:42.932Z,1.45
2022-12-29T13:36:23.731Z,1.20
2022-12-29T13:39:09.912Z,1.10
2022-12-29T13:41:56.337Z,1.05
2022-12-29T13:44:36.566Z,1.20
2022-12-29T13:47:26.858Z,1.20
2022-12-29T13:49:57.061Z,1.73
2022-12-29T13:52:37.845Z,1.70
2022-12-29T13:55:38.736Z,1.80
2022-12-29T13:58:18.369Z,2.08
2022-12-29T14:01:00.040Z,2.10
2022-12-29T14:03:52.760Z,1.60
2022-12-29T14:06:27.298Z,1.70
2022-12-29T14:09:00.014Z,2.20
2022-12-29T14:11:37.702Z,2.17
2022-12-29T14:14:23.380Z,1.40
2022-12-29T14:16:52.596Z,1.60
2022-12-29T14:19:22.549Z,1.67
2022-12-29T14:22:05.542Z,1.27
2022-12-29T14:24:35.837Z,1.85
2022-12-29T14:27:23.704Z,1.52
2022-12-29T14:29:52.451Z,1.77
2022-12-29T14:32:25.576Z,1.27
2022-12-29T14:34:57.610Z,1.50
2022-12-29T14:37:30.496Z,1.70
2022-12-29T14:40:23.337Z,1.75
2022-12-29T14:42:58.534Z,1.55
2022-12-29T14:45:31.090Z,1.40
2022-12-29T14:47:58.488Z,1.67
2022-12-29T14:50:45.002Z,1.30
2022-12-29T14:53:47.484Z,1.83
2022-12-29T14:56:18.146Z,1.30
2022-12-29T14:58:50.396Z,1.70
2022-12-29T15:01:25.335Z,1.30
2022-12-29T15:03:57.542Z,2.17
2022-12-29T15:06:28.891Z,1.40
2022-12-29T15:09:05.438Z,1.40
2022-12-29T15:11:41.753Z,1.67
2022-12-29T15:14:30.673Z,1.75
2022-12-29T15:16:58.017Z,2.40
2022-12-29T15:19:27.265Z,2.78
2022-12-29T15:21:56.573Z,1.92
2022-12-29T15:24:24.975Z,2.03
2022-12-29T15:26:54.836Z,2.10
2022-12-29T15:29:39.682Z,1.80
2022-12-29T15:32:27.422Z,1.92
2022-12-29T15:34:57.808Z,2.20
2022-12-29T15:37:33.771Z,2.30
2022-12-29T15:40:00.920Z,2.17
2022-12-29T15:42:30.842Z,1.92
2022-12-29T15:45:10.134Z,2.05
2022-12-29T15:47:39.536Z,2.80
2022-12-29T15:50:22.268Z,2.00
2022-12-29T15:52:49.916Z,2.10
2022-12-29T15:55:25.940Z,2.13
2022-12-29T15:57:58.368Z,1.88
2022-12-29T16:00:27.652Z,1.85
2022-12-29T16:02:56.836Z,2.28
2022-12-29T16:05:24.177Z,2.10
2022-12-29T16:08:00.334Z,2.00
2022-12-29T16:10:39.344Z,1.70
2022-12-29T16:13:29.709Z,1.45
2022-12-29T16:16:10.267Z,1.30
2022-12-29T16:18:38.891Z,2.30
2022-12-29T16:21:15.292Z,2.50
2022-12-29T16:23:47.999Z,1.67
2022-12-29T16:26:21.461Z,1.23
2022-12-29T16:28:57.493Z,1.10
2022-12-29T16:31:36.471Z,1.20
2022-12-29T16:34:26.433Z,1.27
2022-12-29T16:36:58.311Z,1.02
2022-12-29T16:39:28.391Z,1.00
2022-12-29T16:41:56.347Z,0.90
2022-12-29T16:44:29.618Z,0.93
2022-12-29T16:47:11.280Z,0.88
2022-12-29T16:49:43.203Z,1.00
2022-12-29T16:52:35.100Z,0.93
2022-12-29T16:55:02.987Z,0.85
2022-12-29T16:57:34.799Z,0.80
2022-12-29T17:00:06.380Z,0.70
2022-12-29T17:02:34.804Z,1.10
2022-12-29T17:05:02.014Z,0.73
2022-12-29T17:07:29.521Z,0.80
2022-12-29T17:09:56.540Z,0.85
2022-12-29T17:12:31.425Z,0.90
2022-12-29T17:15:15.163Z,1.13
2022-12-29T17:17:52.649Z,0.70
2022-12-29T17:20:27.467Z,1.10
2022-12-29T17:22:55.154Z,1.13
2022-12-29T17:25:28.963Z,1.40
2022-12-29T17:28:05.947Z,1.05
2022-12-29T17:30:34.979Z,1.05
2022-12-29T17:33:12.369Z,1.00
2022-12-29T17:35:39.765Z,1.10
2022-12-29T17:38:28.312Z,1.55
2022-12-29T17:40:56.187Z,1.40
2022-12-29T17:43:24.072Z,1.10
2022-12-29T17:45:54.726Z,1.20
2022-12-29T17:48:22.502Z,1.08
2022-12-29T17:50:52.738Z,1.05
2022-12-29T17:53:25.824Z,1.30
2022-12-29T17:55:53.113Z,1.17
2022-12-29T17:58:38.614Z,1.10
2022-12-29T18:01:07.138Z,1.27
2022-12-29T18:03:37.140Z,1.17
2022-12-29T18:06:06.751Z,1.33
2022-12-29T18:08:35.767Z,1.80
2022-12-29T18:11:04.176Z,1.90
2022-12-29T18:13:45.502Z,2.83
2022-12-29T18:16:17.115Z,3.40
2022-12-29T18:18:44.845Z,3.20
2022-12-29T18:21:21.434Z,2.38
2022-12-29T18:23:49.694Z,2.50
2022-12-29T18:26:27.719Z,3.10
2022-12-29T18:28:56.917Z,2.63
2022-12-29T18:31:29.877Z,2.80
2022-12-29T18:33:58.793Z,1.98
2022-12-29T18:36:27.100Z,2.70
2022-12-29T18:38:54.999Z,3.03
2022-12-29T18:41:23.505Z,2.80
2022-12-29T18:43:51.281Z,2.88
2022-12-29T18:46:22.782Z,3.20
2022-12-29T18:48:51.875Z,4.90
2022-12-29T18:51:21.610Z,3.85
2022-12-29T18:53:49.932Z,2.10
2022-12-29T18:56:16.895Z,1.60
2022-12-29T18:58:43.937Z,1.20
2022-12-29T19:01:31.375Z,1.25
2022-12-29T19:03:58.645Z,1.55
2022-12-29T19:06:25.892Z,1.10
2022-12-29T19:08:53.345Z,1.17
2022-12-29T19:11:20.589Z,1.10
2022-12-29T19:13:47.844Z,1.20
2022-12-29T19:16:21.389Z,1.30
2022-12-29T19:19:05.823Z,1.40
2022-12-29T19:21:36.756Z,1.63
2022-12-29T19:24:04.297Z,2.70
2022-12-29T19:26:35.675Z,2.35
2022-12-29T19:29:04.169Z,2.05
2022-12-29T19:31:31.454Z,2.42
2022-12-29T19:33:58.928Z,1.83
2022-12-29T19:36:26.168Z,2.70
2022-12-29T19:38:53.983Z,3.00
2022-12-29T19:41:21.658Z,3.97
2022-12-29T19:43:48.986Z,2.40
2022-12-29T19:46:18.244Z,1.95
2022-12-29T19:48:45.529Z,2.25
2022-12-29T19:51:18.572Z,2.30
2022-12-29T19:53:46.865Z,1.90
2022-12-29T19:56:14.591Z,1.80
2022-12-29T19:58:47.217Z,1.70
2022-12-29T20:01:18.391Z,2.20
2022-12-29T20:03:45.695Z,1.95
2022-12-29T20:06:13.700Z,1.77
2022-12-29T20:08:41.254Z,1.70
2022-12-29T20:11:17.270Z,1.80
2022-12-29T20:13:45.141Z,1.80
2022-12-29T20:16:15.876Z,2.30
2022-12-29T20:18:43.391Z,1.98
2022-12-29T20:21:23.753Z,1.95
2022-12-29T20:23:52.996Z,2.17
2022-12-29T20:26:23.180Z,2.30
2022-12-29T20:28:51.404Z,2.80
2022-12-29T20:31:25.834Z,2.95
2022-12-29T20:33:53.490Z,2.58
2022-12-29T20:36:27.440Z,2.72
2022-12-29T20:38:57.267Z,1.67
2022-12-29T20:41:24.807Z,2.72
2022-12-29T20:43:55.682Z,1.70
2022-12-29T20:46:29.918Z,1.40
2022-12-29T20:49:00.877Z,2.38
2022-12-29T20:51:55.275Z,3.95
2022-12-29T20:54:18.085Z,2.42
2022-12-29T20:56:46.077Z,1.52
2022-12-29T20:59:29.285Z,1.77
2022-12-29T21:01:57.942Z,1.30
2022-12-29T21:04:25.748Z,1.70
2022-12-29T21:06:53.111Z,1.50
2022-12-29T21:09:20.434Z,1.50
2022-12-29T21:11:48.446Z,1.42
2022-12-29T21:14:15.598Z,1.60
2022-12-29T21:16:42.700Z,1.40
2022-12-29T21:19:10.001Z,1.60
2022-12-29T21:21:37.228Z,1.33
2022-12-29T21:24:07.277Z,1.90
2022-12-29T21:26:34.469Z,1.70
2022-12-29T21:29:03.438Z,1.40
2022-12-29T21:31:35.829Z,1.98
2022-12-29T21:34:05.371Z,1.45
2022-12-29T21:36:33.269Z,1.30
2022-12-29T21:39:00.892Z,1.25
2022-12-29T21:41:28.061Z,1.42
2022-12-29T21:44:14.563Z,1.40
2022-12-29T21:46:44.180Z,1.30
2022-12-29T21:49:11.571Z,1.13
2022-12-29T21:51:50.471Z,1.13
2022-12-29T21:54:47.220Z,0.82
2022-12-29T22:00:24.373Z,1.05
2022-12-29T22:03:14.630Z,0.90
2022-12-29T22:06:04.076Z,0.90
2022-12-29T22:08:50.376Z,0.97
2022-12-29T22:11:35.978Z,1.00
2022-12-29T22:14:03.624Z,1.02
2022-12-29T22:16:30.704Z,1.08
2022-12-29T22:18:58.002Z,1.00
2022-12-29T22:21:25.192Z,1.25
2022-12-29T22:23:52.363Z,1.27
2022-12-29T22:26:19.514Z,1.20
2022-12-29T22:28:48.044Z,1.00
2022-12-29T22:31:29.881Z,1.00
2022-12-29T22:33:58.756Z,1.38
2022-12-29T22:36:27.090Z,0.95
2022-12-29T22:38:54.533Z,0.70
2022-12-29T22:41:22.432Z,0.80
2022-12-29T22:43:49.662Z,1.00
2022-12-29T22:46:16.737Z,0.88
2022-12-29T22:48:44.002Z,1.40
2022-12-29T22:51:11.145Z,1.00
2022-12-29T22:53:38.257Z,1.10
2022-12-29T22:56:13.613Z,1.00
2022-12-29T22:58:43.429Z,1.10
2022-12-29T23:01:12.221Z,0.90
2022-12-29T23:03:40.061Z,1.02
2022-12-29T23:06:09.067Z,0.90
2022-12-29T23:08:38.351Z,1.20
2022-12-29T23:11:08.790Z,1.00
2022-12-29T23:13:36.443Z,0.98
2022-12-29T23:16:03.732Z,1.00
2022-12-29T23:18:31.193Z,1.17
2022-12-29T23:20:58.206Z,1.15
2022-12-29T23:23:48.720Z,1.75
2022-12-29T23:26:17.609Z,0.80
2022-12-29T23:28:44.634Z,1.02
2022-12-29T23:31:11.651Z,1.02
2022-12-29T23:33:38.740Z,1.15
2022-12-29T23:36:06.185Z,1.35
2022-12-29T23:38:33.478Z,1.17
2022-12-29T23:41:00.558Z,0.60
2022-12-29T23:43:27.543Z,1.00
2022-12-29T23:45:54.490Z,1.13
2022-12-29T23:48:21.890Z,1.00
2022-12-29T23:50:48.855Z,1.20
2022-12-29T23:53:15.920Z,1.00
2022-12-29T23:55:43.959Z,1.00
2022-12-29T23:58:11.545Z,1.08
